Mariq — SVA2152 — position and weather

sailwx.info

Track history (hours):
 
Tides and Currents Weather Stations Pressure Air Temp Water Temp Dewpoint Dewpoint Depression Visibility Wind Speed Wind Dir Waves Ship Positions

Mariq

Last reported at 2017-Apr-23 07:42 UTC. Time now 2017-Apr-27 18:55 UTC.
Position N 37°24' E 025°55'.

Length 57 m.

Type: Tanker. MMSI: 239758424.

Date/timePositionNaut miles runAvg speedWind from/ knotsBaromVisibWave heightAir tempDewpointWater temp
2017-Apr-23 07:42N 37°24' E 025°55'2 8.8
2017-Apr-23 07:30N 37°24' E 025°53'4 8.6
2017-Apr-23 07:00N 37°24' E 025°48'5 8.6
2017-Apr-23 06:28N 37°24' E 025°42'4 8.2
2017-Apr-23 06:00N 37°23' E 025°37'4 8.6
2017-Apr-23 05:30N 37°22' E 025°32'4 9.0
2017-Apr-23 05:00N 37°22' E 025°26'5 9.3
2017-Apr-23 04:30N 37°21' E 025°21'5 9.4
2017-Apr-23 04:00N 37°21' E 025°15'5 9.4
2017-Apr-23 03:30N 37°21' E 025°09'5 9.4
2017-Apr-23 03:00N 37°21' E 025°03'5 9.4
2017-Apr-23 02:30N 37°21' E 024°57'5 9.3
2017-Apr-23 02:00N 37°21' E 024°51'5 9.5
2017-Apr-23 01:30N 37°24' E 024°46'25 9.4
2017-Apr-22 22:50N 37°31' E 024°16'6 9.4
2017-Apr-22 22:12N 37°35' E 024°10'7 9.2
2017-Apr-22 21:26N 37°41' E 024°05'5 0.1
2017-Apr-21 06:53N 37°36' E 024°06'5 0.4
2017-Apr-20 16:57N 37°41' E 024°05'4 9.5
2017-Apr-20 16:30N 37°37' E 024°05'  
Track history (hours):
 
Tides and Currents Weather Stations Pressure Air Temp Water Temp Dewpoint Dewpoint Depression Visibility Wind Speed Wind Dir Waves Ship Positions

Mariq

Last reported at 2017-Apr-23 07:42 UTC. Time now 2017-Apr-27 18:55 UTC.
Position N 37°24' E 025°55'.

Length 57 m.

Type: Tanker. MMSI: 239758424.

Date/timePositionNaut miles runAvg speedWind from/ knotsBaromVisibWave heightAir tempDewpointWater temp
2017-Apr-23 07:42N 37°24' E 025°55'2 8.8
2017-Apr-23 07:30N 37°24' E 025°53'4 8.6
2017-Apr-23 07:00N 37°24' E 025°48'5 8.6
2017-Apr-23 06:28N 37°24' E 025°42'4 8.2
2017-Apr-23 06:00N 37°23' E 025°37'4 8.6
2017-Apr-23 05:30N 37°22' E 025°32'4 9.0
2017-Apr-23 05:00N 37°22' E 025°26'5 9.3
2017-Apr-23 04:30N 37°21' E 025°21'5 9.4
2017-Apr-23 04:00N 37°21' E 025°15'5 9.4
2017-Apr-23 03:30N 37°21' E 025°09'5 9.4
2017-Apr-23 03:00N 37°21' E 025°03'5 9.4
2017-Apr-23 02:30N 37°21' E 024°57'5 9.3
2017-Apr-23 02:00N 37°21' E 024°51'5 9.5
2017-Apr-23 01:30N 37°24' E 024°46'25 9.4
2017-Apr-22 22:50N 37°31' E 024°16'6 9.4
2017-Apr-22 22:12N 37°35' E 024°10'7 9.2
2017-Apr-22 21:26N 37°41' E 024°05'5 0.1
2017-Apr-21 06:53N 37°36' E 024°06'5 0.4
2017-Apr-20 16:57N 37°41' E 024°05'4 9.5
2017-Apr-20 16:30N 37°37' E 024°05'  

Dump ship's entire track history